sensor_id;sensor_type;location;lat;lon;timestamp;temperature;humidity
20171;DHT22;10245;51.344;6.620;2022-11-20T00:02:08;0.40;83.30
20171;DHT22;10245;51.344;6.620;2022-11-20T00:04:32;0.50;84.00
20171;DHT22;10245;51.344;6.620;2022-11-20T00:06:55;0.30;83.90
20171;DHT22;10245;51.344;6.620;2022-11-20T00:09:20;0.30;84.10
20171;DHT22;10245;51.344;6.620;2022-11-20T00:11:44;0.30;84.40
20171;DHT22;10245;51.344;6.620;2022-11-20T00:14:09;0.20;84.50
20171;DHT22;10245;51.344;6.620;2022-11-20T00:16:33;0.50;84.80
20171;DHT22;10245;51.344;6.620;2022-11-20T00:18:56;0.50;84.40
20171;DHT22;10245;51.344;6.620;2022-11-20T00:21:21;0.40;84.10
20171;DHT22;10245;51.344;6.620;2022-11-20T00:23:45;0.30;85.10
20171;DHT22;10245;51.344;6.620;2022-11-20T00:26:11;0.20;84.20
20171;DHT22;10245;51.344;6.620;2022-11-20T00:28:35;0.50;85.50
20171;DHT22;10245;51.344;6.620;2022-11-20T00:31:03;0.30;83.40
20171;DHT22;10245;51.344;6.620;2022-11-20T00:33:27;0.50;85.30
20171;DHT22;10245;51.344;6.620;2022-11-20T00:35:51;0.40;83.80
20171;DHT22;10245;51.344;6.620;2022-11-20T00:38:14;0.10;84.50
20171;DHT22;10245;51.344;6.620;2022-11-20T00:40:37;0.00;84.70
20171;DHT22;10245;51.344;6.620;2022-11-20T00:43:02;0.00;85.20
20171;DHT22;10245;51.344;6.620;2022-11-20T00:45:25;0.20;85.50
20171;DHT22;10245;51.344;6.620;2022-11-20T00:47:49;0.20;84.70
20171;DHT22;10245;51.344;6.620;2022-11-20T00:50:12;0.20;84.30
20171;DHT22;10245;51.344;6.620;2022-11-20T00:52:35;0.40;85.90
20171;DHT22;10245;51.344;6.620;2022-11-20T00:54:59;0.30;83.80
20171;DHT22;10245;51.344;6.620;2022-11-20T00:57:22;0.50;86.00
20171;DHT22;10245;51.344;6.620;2022-11-20T00:59:47;0.10;84.00
20171;DHT22;10245;51.344;6.620;2022-11-20T01:02:10;0.00;84.20
20171;DHT22;10245;51.344;6.620;2022-11-20T01:04:33;0.00;84.80
20171;DHT22;10245;51.344;6.620;2022-11-20T01:06:56;0.00;84.40
20171;DHT22;10245;51.344;6.620;2022-11-20T01:09:20;0.00;84.50
20171;DHT22;10245;51.344;6.620;2022-11-20T01:11:45;0.20;85.30
20171;DHT22;10245;51.344;6.620;2022-11-20T01:14:11;0.20;84.40
20171;DHT22;10245;51.344;6.620;2022-11-20T01:16:38;0.50;85.30
20171;DHT22;10245;51.344;6.620;2022-11-20T01:19:05;0.50;85.00
20171;DHT22;10245;51.344;6.620;2022-11-20T01:21:31;0.70;85.30
20171;DHT22;10245;51.344;6.620;2022-11-20T01:24:02;0.50;83.30
20171;DHT22;10245;51.344;6.620;2022-11-20T01:26:28;0.50;85.10
20171;DHT22;10245;51.344;6.620;2022-11-20T01:28:53;0.40;83.40
20171;DHT22;10245;51.344;6.620;2022-11-20T01:31:18;0.20;84.20
20171;DHT22;10245;51.344;6.620;2022-11-20T01:33:46;0.00;84.40
20171;DHT22;10245;51.344;6.620;2022-11-20T01:36:11;0.20;84.90
20171;DHT22;10245;51.344;6.620;2022-11-20T01:38:35;0.20;84.10
20171;DHT22;10245;51.344;6.620;2022-11-20T01:40:59;0.40;85.20
20171;DHT22;10245;51.344;6.620;2022-11-20T01:43:23;0.40;84.70
20171;DHT22;10245;51.344;6.620;2022-11-20T01:46:03;0.40;83.80
20171;DHT22;10245;51.344;6.620;2022-11-20T01:48:32;0.30;84.50
20171;DHT22;10245;51.344;6.620;2022-11-20T01:51:00;0.20;84.30
20171;DHT22;10245;51.344;6.620;2022-11-20T01:53:26;0.30;85.30
20171;DHT22;10245;51.344;6.620;2022-11-20T01:55:54;0.60;86.00
20171;DHT22;10245;51.344;6.620;2022-11-20T01:58:20;0.80;85.40
20171;DHT22;10245;51.344;6.620;2022-11-20T02:00:46;0.40;84.20
20171;DHT22;10245;51.344;6.620;2022-11-20T02:03:12;0.60;86.30
20171;DHT22;10245;51.344;6.620;2022-11-20T02:05:43;0.60;85.20
20171;DHT22;10245;51.344;6.620;2022-11-20T02:08:10;0.80;85.70
20171;DHT22;10245;51.344;6.620;2022-11-20T02:10:33;0.80;84.80
20171;DHT22;10245;51.344;6.620;2022-11-20T02:12:58;0.90;85.20
20171;DHT22;10245;51.344;6.620;2022-11-20T02:15:40;0.50;84.30
20171;DHT22;10245;51.344;6.620;2022-11-20T02:18:04;0.50;85.50
20171;DHT22;10245;51.344;6.620;2022-11-20T02:20:28;0.80;86.60
20171;DHT22;10245;51.344;6.620;2022-11-20T02:22:56;0.90;86.60
20171;DHT22;10245;51.344;6.620;2022-11-20T02:25:24;0.80;85.10
20171;DHT22;10245;51.344;6.620;2022-11-20T02:27:48;0.50;85.10
20171;DHT22;10245;51.344;6.620;2022-11-20T02:30:11;0.60;85.70
20171;DHT22;10245;51.344;6.620;2022-11-20T02:32:36;0.80;86.20
20171;DHT22;10245;51.344;6.620;2022-11-20T02:35:07;1.00;85.90
20171;DHT22;10245;51.344;6.620;2022-11-20T02:37:34;0.90;84.80
20171;DHT22;10245;51.344;6.620;2022-11-20T02:39:59;0.70;84.40
20171;DHT22;10245;51.344;6.620;2022-11-20T02:42:24;0.50;84.70
20171;DHT22;10245;51.344;6.620;2022-11-20T02:44:47;0.70;85.20
20171;DHT22;10245;51.344;6.620;2022-11-20T02:47:10;0.90;86.50
20171;DHT22;10245;51.344;6.620;2022-11-20T02:49:33;1.10;87.00
20171;DHT22;10245;51.344;6.620;2022-11-20T02:51:57;1.10;86.70
20171;DHT22;10245;51.344;6.620;2022-11-20T02:54:20;1.10;86.10
20171;DHT22;10245;51.344;6.620;2022-11-20T02:56:44;1.20;86.30
20171;DHT22;10245;51.344;6.620;2022-11-20T02:59:09;1.10;85.50
20171;DHT22;10245;51.344;6.620;2022-11-20T03:01:32;1.00;85.30
20171;DHT22;10245;51.344;6.620;2022-11-20T03:03:56;0.90;85.90
20171;DHT22;10245;51.344;6.620;2022-11-20T03:06:19;1.00;87.10
20171;DHT22;10245;51.344;6.620;2022-11-20T03:08:43;1.10;86.90
20171;DHT22;10245;51.344;6.620;2022-11-20T03:11:07;1.00;85.70
20171;DHT22;10245;51.344;6.620;2022-11-20T03:13:31;0.60;85.70
20171;DHT22;10245;51.344;6.620;2022-11-20T03:15:56;0.50;85.80
20171;DHT22;10245;51.344;6.620;2022-11-20T03:18:20;0.40;86.60
20171;DHT22;10245;51.344;6.620;2022-11-20T03:20:43;0.30;86.80
20171;DHT22;10245;51.344;6.620;2022-11-20T03:23:06;0.30;86.90
20171;DHT22;10245;51.344;6.620;2022-11-20T03:25:30;0.40;86.80
20171;DHT22;10245;51.344;6.620;2022-11-20T03:27:54;0.50;86.70
20171;DHT22;10245;51.344;6.620;2022-11-20T03:30:17;0.40;86.80
20171;DHT22;10245;51.344;6.620;2022-11-20T03:32:42;0.40;87.30
20171;DHT22;10245;51.344;6.620;2022-11-20T03:35:06;0.30;87.50
20171;DHT22;10245;51.344;6.620;2022-11-20T03:37:30;0.20;87.60
20171;DHT22;10245;51.344;6.620;2022-11-20T03:39:54;0.20;87.50
20171;DHT22;10245;51.344;6.620;2022-11-20T03:42:17;0.20;87.70
20171;DHT22;10245;51.344;6.620;2022-11-20T03:44:58;0.20;87.70
20171;DHT22;10245;51.344;6.620;2022-11-20T03:47:22;0.40;87.60
20171;DHT22;10245;51.344;6.620;2022-11-20T03:49:47;0.40;87.00
20171;DHT22;10245;51.344;6.620;2022-11-20T03:52:10;0.20;87.70
20171;DHT22;10245;51.344;6.620;2022-11-20T03:54:33;0.20;87.50
20171;DHT22;10245;51.344;6.620;2022-11-20T03:56:56;0.30;87.50
20171;DHT22;10245;51.344;6.620;2022-11-20T03:59:19;0.30;87.10
20171;DHT22;10245;51.344;6.620;2022-11-20T04:01:43;0.10;87.60
20171;DHT22;10245;51.344;6.620;2022-11-20T04:04:10;0.20;87.20
20171;DHT22;10245;51.344;6.620;2022-11-20T04:06:37;0.10;87.00
20171;DHT22;10245;51.344;6.620;2022-11-20T04:09:01;0.10;87.20
20171;DHT22;10245;51.344;6.620;2022-11-20T04:11:26;0.00;87.40
20171;DHT22;10245;51.344;6.620;2022-11-20T04:13:51;0.20;87.30
20171;DHT22;10245;51.344;6.620;2022-11-20T04:16:16;0.30;86.90
20171;DHT22;10245;51.344;6.620;2022-11-20T04:18:40;0.30;87.00
20171;DHT22;10245;51.344;6.620;2022-11-20T04:21:04;0.30;86.90
20171;DHT22;10245;51.344;6.620;2022-11-20T04:23:29;0.40;87.10
20171;DHT22;10245;51.344;6.620;2022-11-20T04:25:53;0.50;87.50
20171;DHT22;10245;51.344;6.620;2022-11-20T04:28:16;0.50;86.40
20171;DHT22;10245;51.344;6.620;2022-11-20T04:30:39;0.60;86.80
20171;DHT22;10245;51.344;6.620;2022-11-20T04:33:03;0.60;86.20
20171;DHT22;10245;51.344;6.620;2022-11-20T04:35:26;0.70;86.70
20171;DHT22;10245;51.344;6.620;2022-11-20T04:37:51;0.70;86.10
20171;DHT22;10245;51.344;6.620;2022-11-20T04:40:16;0.50;86.60
20171;DHT22;10245;51.344;6.620;2022-11-20T04:42:39;0.70;87.20
20171;DHT22;10245;51.344;6.620;2022-11-20T04:45:03;0.70;86.40
20171;DHT22;10245;51.344;6.620;2022-11-20T04:47:26;0.70;86.80
20171;DHT22;10245;51.344;6.620;2022-11-20T04:49:50;0.70;86.60
20171;DHT22;10245;51.344;6.620;2022-11-20T04:52:13;0.70;86.50
20171;DHT22;10245;51.344;6.620;2022-11-20T04:54:36;0.50;86.50
20171;DHT22;10245;51.344;6.620;2022-11-20T04:57:01;0.50;86.70
20171;DHT22;10245;51.344;6.620;2022-11-20T04:59:24;0.50;86.80
20171;DHT22;10245;51.344;6.620;2022-11-20T05:01:48;0.70;87.70
20171;DHT22;10245;51.344;6.620;2022-11-20T05:04:12;0.70;86.90
20171;DHT22;10245;51.344;6.620;2022-11-20T05:06:35;0.90;87.70
20171;DHT22;10245;51.344;6.620;2022-11-20T05:08:58;0.80;86.90
20171;DHT22;10245;51.344;6.620;2022-11-20T05:11:22;1.00;87.50
20171;DHT22;10245;51.344;6.620;2022-11-20T05:13:47;1.00;86.50
20171;DHT22;10245;51.344;6.620;2022-11-20T05:16:13;0.80;86.30
20171;DHT22;10245;51.344;6.620;2022-11-20T05:18:38;0.80;86.90
20171;DHT22;10245;51.344;6.620;2022-11-20T05:21:02;1.00;87.90
20171;DHT22;10245;51.344;6.620;2022-11-20T05:23:26;0.90;86.50
20171;DHT22;10245;51.344;6.620;2022-11-20T05:25:52;1.00;87.60
20171;DHT22;10245;51.344;6.620;2022-11-20T05:28:20;1.00;86.70
20171;DHT22;10245;51.344;6.620;2022-11-20T05:30:45;1.00;87.20
20171;DHT22;10245;51.344;6.620;2022-11-20T05:33:08;1.10;87.40
20171;DHT22;10245;51.344;6.620;2022-11-20T05:35:31;1.20;87.60
20171;DHT22;10245;51.344;6.620;2022-11-20T05:37:55;1.00;85.80
20171;DHT22;10245;51.344;6.620;2022-11-20T05:40:18;1.10;87.20
20171;DHT22;10245;51.344;6.620;2022-11-20T05:42:41;1.00;87.20
20171;DHT22;10245;51.344;6.620;2022-11-20T05:45:06;1.00;86.80
20171;DHT22;10245;51.344;6.620;2022-11-20T05:47:33;1.00;87.20
20171;DHT22;10245;51.344;6.620;2022-11-20T05:49:57;1.00;87.50
20171;DHT22;10245;51.344;6.620;2022-11-20T05:52:20;1.00;86.40
20171;DHT22;10245;51.344;6.620;2022-11-20T05:54:44;1.00;87.20
20171;DHT22;10245;51.344;6.620;2022-11-20T05:57:07;1.00;86.80
20171;DHT22;10245;51.344;6.620;2022-11-20T05:59:30;1.00;87.10
20171;DHT22;10245;51.344;6.620;2022-11-20T06:01:53;0.80;86.70
20171;DHT22;10245;51.344;6.620;2022-11-20T06:04:18;0.70;87.20
20171;DHT22;10245;51.344;6.620;2022-11-20T06:06:42;0.90;87.70
20171;DHT22;10245;51.344;6.620;2022-11-20T06:09:05;1.00;88.00
20171;DHT22;10245;51.344;6.620;2022-11-20T06:11:28;1.10;87.80
20171;DHT22;10245;51.344;6.620;2022-11-20T06:13:52;1.00;86.70
20171;DHT22;10245;51.344;6.620;2022-11-20T06:16:17;1.00;87.80
20171;DHT22;10245;51.344;6.620;2022-11-20T06:18:42;1.20;88.20
20171;DHT22;10245;51.344;6.620;2022-11-20T06:21:08;1.00;86.30
20171;DHT22;10245;51.344;6.620;2022-11-20T06:23:34;1.00;87.00
20171;DHT22;10245;51.344;6.620;2022-11-20T06:26:00;1.00;86.80
20171;DHT22;10245;51.344;6.620;2022-11-20T06:28:24;1.00;87.10
20171;DHT22;10245;51.344;6.620;2022-11-20T06:30:47;1.10;87.50
20171;DHT22;10245;51.344;6.620;2022-11-20T06:33:11;1.30;87.90
20171;DHT22;10245;51.344;6.620;2022-11-20T06:35:34;1.20;86.60
20171;DHT22;10245;51.344;6.620;2022-11-20T06:37:59;1.20;87.00
20171;DHT22;10245;51.344;6.620;2022-11-20T06:40:22;1.30;86.60
20171;DHT22;10245;51.344;6.620;2022-11-20T06:42:45;1.30;87.10
20171;DHT22;10245;51.344;6.620;2022-11-20T06:45:09;1.40;86.30
20171;DHT22;10245;51.344;6.620;2022-11-20T06:47:33;1.50;87.50
20171;DHT22;10245;51.344;6.620;2022-11-20T06:49:56;1.50;87.70
20171;DHT22;10245;51.344;6.620;2022-11-20T06:52:19;1.50;87.20
20171;DHT22;10245;51.344;6.620;2022-11-20T06:54:44;1.50;87.00
20171;DHT22;10245;51.344;6.620;2022-11-20T06:57:08;1.50;87.40
20171;DHT22;10245;51.344;6.620;2022-11-20T06:59:31;1.60;88.10
20171;DHT22;10245;51.344;6.620;2022-11-20T07:01:54;1.50;87.00
20171;DHT22;10245;51.344;6.620;2022-11-20T07:04:18;1.50;87.50
20171;DHT22;10245;51.344;6.620;2022-11-20T07:06:42;1.50;87.80
20171;DHT22;10245;51.344;6.620;2022-11-20T07:09:07;1.50;88.60
20171;DHT22;10245;51.344;6.620;2022-11-20T07:11:44;1.50;88.50
20171;DHT22;10245;51.344;6.620;2022-11-20T07:14:07;1.20;87.10
20171;DHT22;10245;51.344;6.620;2022-11-20T07:16:31;1.20;88.00
20171;DHT22;10245;51.344;6.620;2022-11-20T07:18:54;1.00;87.80
20171;DHT22;10245;51.344;6.620;2022-11-20T07:21:17;1.00;88.50
20171;DHT22;10245;51.344;6.620;2022-11-20T07:23:41;1.20;89.30
20171;DHT22;10245;51.344;6.620;2022-11-20T07:26:05;1.10;87.90
20171;DHT22;10245;51.344;6.620;2022-11-20T07:28:30;1.20;88.70
20171;DHT22;10245;51.344;6.620;2022-11-20T07:30:54;1.20;88.20
20171;DHT22;10245;51.344;6.620;2022-11-20T07:33:17;1.30;88.90
20171;DHT22;10245;51.344;6.620;2022-11-20T07:35:40;1.50;89.00
20171;DHT22;10245;51.344;6.620;2022-11-20T07:38:03;1.40;88.10
20171;DHT22;10245;51.344;6.620;2022-11-20T07:40:28;1.50;88.90
20171;DHT22;10245;51.344;6.620;2022-11-20T07:42:52;1.50;89.00
20171;DHT22;10245;51.344;6.620;2022-11-20T07:45:18;1.50;88.80
20171;DHT22;10245;51.344;6.620;2022-11-20T07:47:41;1.50;88.10
20171;DHT22;10245;51.344;6.620;2022-11-20T07:50:06;1.50;89.20
20171;DHT22;10245;51.344;6.620;2022-11-20T07:52:29;1.50;88.10
20171;DHT22;10245;51.344;6.620;2022-11-20T07:54:53;1.60;88.70
20171;DHT22;10245;51.344;6.620;2022-11-20T07:57:16;1.70;88.70
20171;DHT22;10245;51.344;6.620;2022-11-20T07:59:40;1.60;88.50
20171;DHT22;10245;51.344;6.620;2022-11-20T08:02:05;1.50;88.30
20171;DHT22;10245;51.344;6.620;2022-11-20T08:04:28;1.50;87.90
20171;DHT22;10245;51.344;6.620;2022-11-20T08:06:52;1.60;87.80
20171;DHT22;10245;51.344;6.620;2022-11-20T08:09:16;1.80;88.70
20171;DHT22;10245;51.344;6.620;2022-11-20T08:11:39;1.70;87.40
20171;DHT22;10245;51.344;6.620;2022-11-20T08:14:20;1.60;87.50
20171;DHT22;10245;51.344;6.620;2022-11-20T08:16:45;1.60;88.00
20171;DHT22;10245;51.344;6.620;2022-11-20T08:19:12;1.60;87.60
20171;DHT22;10245;51.344;6.620;2022-11-20T08:21:36;1.70;88.70
20171;DHT22;10245;51.344;6.620;2022-11-20T08:24:00;1.60;87.80
20171;DHT22;10245;51.344;6.620;2022-11-20T08:26:23;1.60;88.50
20171;DHT22;10245;51.344;6.620;2022-11-20T08:28:47;1.80;88.80
20171;DHT22;10245;51.344;6.620;2022-11-20T08:31:10;1.70;88.10
20171;DHT22;10245;51.344;6.620;2022-11-20T08:33:33;1.90;88.00
20171;DHT22;10245;51.344;6.620;2022-11-20T08:36:01;1.80;88.20
20171;DHT22;10245;51.344;6.620;2022-11-20T08:38:24;2.00;88.30
20171;DHT22;10245;51.344;6.620;2022-11-20T08:40:47;1.90;87.80
20171;DHT22;10245;51.344;6.620;2022-11-20T08:43:25;2.00;87.90
20171;DHT22;10245;51.344;6.620;2022-11-20T08:45:48;2.00;87.40
20171;DHT22;10245;51.344;6.620;2022-11-20T08:48:12;2.00;87.80
20171;DHT22;10245;51.344;6.620;2022-11-20T08:50:35;2.00;87.30
20171;DHT22;10245;51.344;6.620;2022-11-20T08:53:03;2.10;88.10
20171;DHT22;10245;51.344;6.620;2022-11-20T08:55:27;2.30;87.60
20171;DHT22;10245;51.344;6.620;2022-11-20T08:57:51;2.30;86.80
20171;DHT22;10245;51.344;6.620;2022-11-20T09:00:15;2.30;87.30
20171;DHT22;10245;51.344;6.620;2022-11-20T09:02:39;2.30;87.20
20171;DHT22;10245;51.344;6.620;2022-11-20T09:05:03;2.30;86.70
20171;DHT22;10245;51.344;6.620;2022-11-20T09:07:27;2.50;87.00
20171;DHT22;10245;51.344;6.620;2022-11-20T09:09:52;2.50;86.60
20171;DHT22;10245;51.344;6.620;2022-11-20T09:12:35;2.60;86.60
20171;DHT22;10245;51.344;6.620;2022-11-20T09:14:59;2.50;86.00
20171;DHT22;10245;51.344;6.620;2022-11-20T09:17:22;2.60;86.20
20171;DHT22;10245;51.344;6.620;2022-11-20T09:19:46;2.50;86.70
20171;DHT22;10245;51.344;6.620;2022-11-20T09:22:10;2.70;86.60
20171;DHT22;10245;51.344;6.620;2022-11-20T09:24:33;2.80;86.50
20171;DHT22;10245;51.344;6.620;2022-11-20T09:26:58;2.70;86.30
20171;DHT22;10245;51.344;6.620;2022-11-20T09:29:24;2.80;86.90
20171;DHT22;10245;51.344;6.620;2022-11-20T09:31:48;3.00;87.30
20171;DHT22;10245;51.344;6.620;2022-11-20T09:34:11;3.00;86.20
20171;DHT22;10245;51.344;6.620;2022-11-20T09:36:34;3.10;86.20
20171;DHT22;10245;51.344;6.620;2022-11-20T09:38:57;3.10;86.50
20171;DHT22;10245;51.344;6.620;2022-11-20T09:41:42;3.30;86.30
20171;DHT22;10245;51.344;6.620;2022-11-20T09:44:47;3.50;86.30
20171;DHT22;10245;51.344;6.620;2022-11-20T09:47:21;3.20;86.00
20171;DHT22;10245;51.344;6.620;2022-11-20T09:50:02;3.50;86.50
20171;DHT22;10245;51.344;6.620;2022-11-20T09:52:42;3.50;86.00
20171;DHT22;10245;51.344;6.620;2022-11-20T09:55:11;3.50;86.40
20171;DHT22;10245;51.344;6.620;2022-11-20T09:57:36;3.70;86.10
20171;DHT22;10245;51.344;6.620;2022-11-20T10:00:05;3.80;86.20
20171;DHT22;10245;51.344;6.620;2022-11-20T10:02:38;3.70;86.00
20171;DHT22;10245;51.344;6.620;2022-11-20T10:05:10;3.70;86.40
20171;DHT22;10245;51.344;6.620;2022-11-20T10:07:38;3.80;86.30
20171;DHT22;10245;51.344;6.620;2022-11-20T10:10:13;3.70;86.30
20171;DHT22;10245;51.344;6.620;2022-11-20T10:12:51;3.70;86.40
20171;DHT22;10245;51.344;6.620;2022-11-20T10:15:29;3.80;86.70
20171;DHT22;10245;51.344;6.620;2022-11-20T10:18:09;3.70;86.70
20171;DHT22;10245;51.344;6.620;2022-11-20T10:20:43;3.80;86.90
20171;DHT22;10245;51.344;6.620;2022-11-20T10:23:23;3.80;86.60
20171;DHT22;10245;51.344;6.620;2022-11-20T10:25:58;3.80;87.20
20171;DHT22;10245;51.344;6.620;2022-11-20T10:28:30;3.70;87.10
20171;DHT22;10245;51.344;6.620;2022-11-20T10:31:06;3.90;87.70
20171;DHT22;10245;51.344;6.620;2022-11-20T10:33:36;4.00;86.90
20171;DHT22;10245;51.344;6.620;2022-11-20T10:36:23;3.90;86.70
20171;DHT22;10245;51.344;6.620;2022-11-20T10:38:56;4.00;86.80
20171;DHT22;10245;51.344;6.620;2022-11-20T10:41:26;4.00;86.30
20171;DHT22;10245;51.344;6.620;2022-11-20T10:44:02;4.00;87.00
20171;DHT22;10245;51.344;6.620;2022-11-20T10:47:20;4.00;86.80
20171;DHT22;10245;51.344;6.620;2022-11-20T10:49:47;4.10;87.70
20171;DHT22;10245;51.344;6.620;2022-11-20T10:52:20;4.10;87.10
20171;DHT22;10245;51.344;6.620;2022-11-20T10:54:54;3.80;87.50
20171;DHT22;10245;51.344;6.620;2022-11-20T10:57:35;3.90;88.10
20171;DHT22;10245;51.344;6.620;2022-11-20T11:00:10;4.00;87.80
20171;DHT22;10245;51.344;6.620;2022-11-20T11:02:40;4.00;87.70
20171;DHT22;10245;51.344;6.620;2022-11-20T11:05:14;4.00;87.90
20171;DHT22;10245;51.344;6.620;2022-11-20T11:07:41;4.20;87.90
20171;DHT22;10245;51.344;6.620;2022-11-20T11:10:15;4.30;88.10
20171;DHT22;10245;51.344;6.620;2022-11-20T11:12:43;4.30;87.50
20171;DHT22;10245;51.344;6.620;2022-11-20T11:15:13;4.30;87.30
20171;DHT22;10245;51.344;6.620;2022-11-20T11:17:46;4.40;87.60
20171;DHT22;10245;51.344;6.620;2022-11-20T11:20:16;4.30;87.80
20171;DHT22;10245;51.344;6.620;2022-11-20T11:22:44;4.50;87.80
20171;DHT22;10245;51.344;6.620;2022-11-20T11:25:19;4.50;87.30
20171;DHT22;10245;51.344;6.620;2022-11-20T11:27:46;4.50;87.20
20171;DHT22;10245;51.344;6.620;2022-11-20T11:30:14;4.30;87.40
20171;DHT22;10245;51.344;6.620;2022-11-20T11:32:40;4.40;87.00
20171;DHT22;10245;51.344;6.620;2022-11-20T11:35:06;4.40;86.60
20171;DHT22;10245;51.344;6.620;2022-11-20T11:37:40;4.50;86.70
20171;DHT22;10245;51.344;6.620;2022-11-20T11:40:05;4.50;86.90
20171;DHT22;10245;51.344;6.620;2022-11-20T11:42:54;4.50;87.00
20171;DHT22;10245;51.344;6.620;2022-11-20T11:45:21;4.50;87.20
20171;DHT22;10245;51.344;6.620;2022-11-20T11:47:48;4.50;87.60
20171;DHT22;10245;51.344;6.620;2022-11-20T11:50:16;4.60;87.00
20171;DHT22;10245;51.344;6.620;2022-11-20T11:52:43;4.60;86.30
20171;DHT22;10245;51.344;6.620;2022-11-20T11:55:14;4.50;86.30
20171;DHT22;10245;51.344;6.620;2022-11-20T11:57:43;4.50;85.80
20171;DHT22;10245;51.344;6.620;2022-11-20T12:00:12;4.60;86.00
20171;DHT22;10245;51.344;6.620;2022-11-20T12:02:40;4.70;85.80
20171;DHT22;10245;51.344;6.620;2022-11-20T12:05:18;4.70;86.50
20171;DHT22;10245;51.344;6.620;2022-11-20T12:07:45;4.90;85.80
20171;DHT22;10245;51.344;6.620;2022-11-20T12:10:20;4.90;84.50
20171;DHT22;10245;51.344;6.620;2022-11-20T12:12:48;4.90;84.70
20171;DHT22;10245;51.344;6.620;2022-11-20T12:15:26;4.80;84.40
20171;DHT22;10245;51.344;6.620;2022-11-20T12:17:53;4.90;84.70
20171;DHT22;10245;51.344;6.620;2022-11-20T12:20:16;4.90;84.20
20171;DHT22;10245;51.344;6.620;2022-11-20T12:22:46;4.90;83.90
20171;DHT22;10245;51.344;6.620;2022-11-20T12:25:17;4.80;83.90
20171;DHT22;10245;51.344;6.620;2022-11-20T12:27:52;4.90;84.00
20171;DHT22;10245;51.344;6.620;2022-11-20T12:30:23;4.80;84.00
20171;DHT22;10245;51.344;6.620;2022-11-20T12:33:14;4.70;84.60
20171;DHT22;10245;51.344;6.620;2022-11-20T12:35:58;4.90;84.70
20171;DHT22;10245;51.344;6.620;2022-11-20T12:42:02;4.80;84.40
20171;DHT22;10245;51.344;6.620;2022-11-20T12:45:10;4.70;84.30
20171;DHT22;10245;51.344;6.620;2022-11-20T12:48:02;4.80;84.50
20171;DHT22;10245;51.344;6.620;2022-11-20T12:50:44;4.80;84.70
20171;DHT22;10245;51.344;6.620;2022-11-20T12:53:37;4.80;84.60
20171;DHT22;10245;51.344;6.620;2022-11-20T12:56:12;4.80;85.30
20171;DHT22;10245;51.344;6.620;2022-11-20T12:58:49;4.80;85.90
20171;DHT22;10245;51.344;6.620;2022-11-20T13:01:24;4.80;86.20
20171;DHT22;10245;51.344;6.620;2022-11-20T13:04:16;4.60;87.20
20171;DHT22;10245;51.344;6.620;2022-11-20T13:06:48;4.70;87.60
20171;DHT22;10245;51.344;6.620;2022-11-20T13:09:15;4.70;87.90
20171;DHT22;10245;51.344;6.620;2022-11-20T13:11:43;4.70;88.10
20171;DHT22;10245;51.344;6.620;2022-11-20T13:14:17;4.70;88.50
20171;DHT22;10245;51.344;6.620;2022-11-20T13:16:52;4.70;88.50
20171;DHT22;10245;51.344;6.620;2022-11-20T13:19:27;4.70;89.00
20171;DHT22;10245;51.344;6.620;2022-11-20T13:21:51;4.80;88.90
20171;DHT22;10245;51.344;6.620;2022-11-20T13:24:23;4.80;88.80
20171;DHT22;10245;51.344;6.620;2022-11-20T13:27:00;4.80;88.80
20171;DHT22;10245;51.344;6.620;2022-11-20T13:29:27;4.90;88.90
20171;DHT22;10245;51.344;6.620;2022-11-20T13:31:51;4.80;89.00
20171;DHT22;10245;51.344;6.620;2022-11-20T13:34:30;4.80;89.60
20171;DHT22;10245;51.344;6.620;2022-11-20T13:36:56;4.90;89.30
20171;DHT22;10245;51.344;6.620;2022-11-20T13:39:25;5.00;88.90
20171;DHT22;10245;51.344;6.620;2022-11-20T13:41:54;5.00;89.30
20171;DHT22;10245;51.344;6.620;2022-11-20T13:44:24;5.00;89.10
20171;DHT22;10245;51.344;6.620;2022-11-20T13:46:50;5.00;89.20
20171;DHT22;10245;51.344;6.620;2022-11-20T13:49:18;5.00;89.00
20171;DHT22;10245;51.344;6.620;2022-11-20T13:51:48;5.00;89.50
20171;DHT22;10245;51.344;6.620;2022-11-20T13:54:40;4.90;89.40
20171;DHT22;10245;51.344;6.620;2022-11-20T13:57:30;4.90;89.50
20171;DHT22;10245;51.344;6.620;2022-11-20T14:00:16;5.00;89.50
20171;DHT22;10245;51.344;6.620;2022-11-20T14:02:40;4.90;89.10
20171;DHT22;10245;51.344;6.620;2022-11-20T14:05:05;5.00;89.20
20171;DHT22;10245;51.344;6.620;2022-11-20T14:07:35;4.90;89.50
20171;DHT22;10245;51.344;6.620;2022-11-20T14:10:01;5.00;89.50
20171;DHT22;10245;51.344;6.620;2022-11-20T14:12:29;5.00;89.60
20171;DHT22;10245;51.344;6.620;2022-11-20T14:14:54;5.00;89.70
20171;DHT22;10245;51.344;6.620;2022-11-20T14:17:19;5.00;89.90
20171;DHT22;10245;51.344;6.620;2022-11-20T14:19:44;5.10;90.20
20171;DHT22;10245;51.344;6.620;2022-11-20T14:22:18;5.00;89.70
20171;DHT22;10245;51.344;6.620;2022-11-20T14:24:44;5.10;89.60
20171;DHT22;10245;51.344;6.620;2022-11-20T14:27:13;5.00;89.70
20171;DHT22;10245;51.344;6.620;2022-11-20T14:29:38;5.10;89.30
20171;DHT22;10245;51.344;6.620;2022-11-20T14:32:03;5.00;89.20
20171;DHT22;10245;51.344;6.620;2022-11-20T14:34:29;5.00;89.20
20171;DHT22;10245;51.344;6.620;2022-11-20T14:36:57;5.00;89.40
20171;DHT22;10245;51.344;6.620;2022-11-20T14:39:22;5.00;89.40
20171;DHT22;10245;51.344;6.620;2022-11-20T14:41:55;5.00;89.30
20171;DHT22;10245;51.344;6.620;2022-11-20T14:44:20;5.00;89.30
20171;DHT22;10245;51.344;6.620;2022-11-20T14:46:47;5.00;89.60
20171;DHT22;10245;51.344;6.620;2022-11-20T14:49:10;5.00;89.50
20171;DHT22;10245;51.344;6.620;2022-11-20T14:51:36;5.00;89.40
20171;DHT22;10245;51.344;6.620;2022-11-20T14:54:11;5.00;89.50
20171;DHT22;10245;51.344;6.620;2022-11-20T14:56:35;5.00;89.30
20171;DHT22;10245;51.344;6.620;2022-11-20T14:58:59;5.00;89.30
20171;DHT22;10245;51.344;6.620;2022-11-20T15:01:26;5.00;89.30
20171;DHT22;10245;51.344;6.620;2022-11-20T15:03:59;5.10;89.70
20171;DHT22;10245;51.344;6.620;2022-11-20T15:06:26;5.00;89.50
20171;DHT22;10245;51.344;6.620;2022-11-20T15:08:51;5.00;89.80
20171;DHT22;10245;51.344;6.620;2022-11-20T15:11:18;5.00;89.60
20171;DHT22;10245;51.344;6.620;2022-11-20T15:13:44;5.00;89.60
20171;DHT22;10245;51.344;6.620;2022-11-20T15:16:15;5.00;89.80
20171;DHT22;10245;51.344;6.620;2022-11-20T15:18:41;5.00;89.70
20171;DHT22;10245;51.344;6.620;2022-11-20T15:21:11;5.10;89.30
20171;DHT22;10245;51.344;6.620;2022-11-20T15:23:35;5.10;89.00
20171;DHT22;10245;51.344;6.620;2022-11-20T15:25:58;5.10;89.20
20171;DHT22;10245;51.344;6.620;2022-11-20T15:28:29;5.00;89.10
20171;DHT22;10245;51.344;6.620;2022-11-20T15:30:53;5.10;89.40
20171;DHT22;10245;51.344;6.620;2022-11-20T15:33:19;5.00;89.50
20171;DHT22;10245;51.344;6.620;2022-11-20T15:35:42;5.10;90.00
20171;DHT22;10245;51.344;6.620;2022-11-20T15:38:06;5.00;90.00
20171;DHT22;10245;51.344;6.620;2022-11-20T15:40:29;5.00;90.00
20171;DHT22;10245;51.344;6.620;2022-11-20T15:42:52;5.00;90.50
20171;DHT22;10245;51.344;6.620;2022-11-20T15:45:38;4.90;90.60
20171;DHT22;10245;51.344;6.620;2022-11-20T15:48:03;5.00;91.10
20171;DHT22;10245;51.344;6.620;2022-11-20T15:50:36;5.00;91.20